createdAt,value
2018-02-18T00:02:10.470Z,29.37
2018-02-18T00:04:37.961Z,29.07
2018-02-18T00:07:05.424Z,25.57
2018-02-18T00:09:32.901Z,25.73
2018-02-18T00:12:00.354Z,26.60
2018-02-18T00:14:28.416Z,25.43
2018-02-18T00:16:55.854Z,27.30
2018-02-18T00:19:23.311Z,34.77
2018-02-18T00:21:50.793Z,34.83
2018-02-18T00:24:18.245Z,30.80
2018-02-18T00:26:45.730Z,33.60
2018-02-18T00:29:13.196Z,33.07
2018-02-18T00:31:40.680Z,33.70
2018-02-18T00:34:08.134Z,34.97
2018-02-18T00:36:35.614Z,36.90
2018-02-18T00:39:03.067Z,34.50
2018-02-18T00:41:30.553Z,34.23
2018-02-18T00:43:58.010Z,28.33
2018-02-18T00:46:25.485Z,30.60
2018-02-18T00:48:52.937Z,29.00
2018-02-18T00:51:20.418Z,30.33
2018-02-18T00:53:47.869Z,28.90
2018-02-18T00:56:15.347Z,25.90
2018-02-18T00:58:42.806Z,27.77
2018-02-18T01:01:10.280Z,24.17
2018-02-18T01:03:37.742Z,24.87
2018-02-18T01:06:05.221Z,23.40
2018-02-18T01:08:32.676Z,23.97
2018-02-18T01:11:00.909Z,22.70
2018-02-18T01:13:28.361Z,22.93
2018-02-18T01:15:55.837Z,22.17
2018-02-18T01:18:23.294Z,24.27
2018-02-18T01:20:50.770Z,24.90
2018-02-18T01:23:18.218Z,24.80
2018-02-18T01:25:48.181Z,26.37
2018-02-18T01:28:15.638Z,25.27
2018-02-18T01:30:43.112Z,25.30
2018-02-18T01:33:10.573Z,25.77
2018-02-18T01:35:38.053Z,27.10
2018-02-18T01:38:05.506Z,28.53
2018-02-18T01:40:32.985Z,27.67
2018-02-18T01:43:00.437Z,25.10
2018-02-18T01:45:27.920Z,22.90
2018-02-18T01:47:55.368Z,23.53
2018-02-18T01:50:35.662Z,23.57
2018-02-18T01:53:03.110Z,24.93
2018-02-18T01:55:31.355Z,23.50
2018-02-18T01:57:58.800Z,21.37
2018-02-18T02:00:26.273Z,22.67
2018-02-18T02:02:53.721Z,21.00
2018-02-18T02:05:21.961Z,19.40
2018-02-18T02:07:49.408Z,15.40
2018-02-18T02:10:17.209Z,18.33
2018-02-18T02:12:44.663Z,20.50
2018-02-18T02:15:12.133Z,18.90
2018-02-18T02:17:39.597Z,19.30
2018-02-18T02:20:07.078Z,17.00
2018-02-18T02:22:34.524Z,18.80
2018-02-18T02:25:01.998Z,18.37
2018-02-18T02:27:29.448Z,15.50
2018-02-18T02:29:57.693Z,15.97
2018-02-18T02:32:25.141Z,16.40
2018-02-18T02:34:52.614Z,16.63
2018-02-18T02:37:20.076Z,16.33
2018-02-18T02:39:47.546Z,13.20
2018-02-18T02:42:14.997Z,11.17
2018-02-18T02:44:43.241Z,10.93
2018-02-18T02:47:10.695Z,10.30
2018-02-18T02:49:38.182Z,9.83
2018-02-18T02:52:05.637Z,10.13
2018-02-18T02:54:33.112Z,11.10
2018-02-18T02:57:00.574Z,10.80
2018-02-18T02:59:28.041Z,11.03
2018-02-18T03:01:55.496Z,11.20
2018-02-18T03:04:22.969Z,11.90
2018-02-18T03:06:50.416Z,14.40
2018-02-18T03:09:18.657Z,15.40
2018-02-18T03:11:46.100Z,17.33
2018-02-18T03:14:13.590Z,31.90
2018-02-18T03:16:41.046Z,36.33
2018-02-18T03:19:08.521Z,29.37
2018-02-18T03:21:35.981Z,29.93
2018-02-18T03:24:03.455Z,27.40
2018-02-18T03:26:30.910Z,31.83
2018-02-18T03:28:58.388Z,37.80
2018-02-18T03:31:25.840Z,28.57
2018-02-18T03:33:54.081Z,30.67
2018-02-18T03:36:21.594Z,30.50
2018-02-18T03:38:49.841Z,34.50
2018-02-18T03:41:17.290Z,30.27
2018-02-18T03:43:44.771Z,32.63
2018-02-18T03:46:12.230Z,36.50
2018-02-18T03:48:39.705Z,28.20
2018-02-18T03:51:07.165Z,31.20
2018-02-18T03:53:34.641Z,29.97
2018-02-18T03:56:02.094Z,25.87
2018-02-18T03:58:29.565Z,25.70
2018-02-18T04:00:57.777Z,28.70
2018-02-18T04:03:25.252Z,25.07
2018-02-18T04:05:52.705Z,30.13
2018-02-18T04:08:20.188Z,26.10
2018-02-18T04:10:47.642Z,27.47
2018-02-18T04:13:15.117Z,23.33
2018-02-18T04:15:42.569Z,24.30
2018-02-18T04:18:10.808Z,22.97
2018-02-18T04:20:38.296Z,22.00
2018-02-18T04:23:05.785Z,20.53
2018-02-18T04:25:33.228Z,18.80
2018-02-18T04:28:00.706Z,19.43
2018-02-18T04:30:28.153Z,17.97
2018-02-18T04:32:55.625Z,18.00
2018-02-18T04:35:23.081Z,17.60
2018-02-18T04:37:50.549Z,17.57
2018-02-18T04:40:17.996Z,17.13
2018-02-18T04:42:46.241Z,18.93
2018-02-18T04:45:13.702Z,16.93
2018-02-18T04:47:41.186Z,17.93
2018-02-18T04:50:08.643Z,17.00
2018-02-18T04:52:36.113Z,17.17
2018-02-18T04:55:03.566Z,17.67
2018-02-18T04:57:31.045Z,24.40
2018-02-18T04:59:58.500Z,17.90
2018-02-18T05:02:25.979Z,18.10
2018-02-18T05:04:53.421Z,16.20
2018-02-18T05:07:20.897Z,17.23
2018-02-18T05:09:49.113Z,17.60
2018-02-18T05:12:16.589Z,16.67
2018-02-18T05:14:44.040Z,18.70
2018-02-18T05:17:11.525Z,17.63
2018-02-18T05:19:38.981Z,16.80
2018-02-18T05:22:06.462Z,16.77
2018-02-18T05:24:33.916Z,17.40
2018-02-18T05:27:02.148Z,17.00
2018-02-18T05:29:29.603Z,18.63
2018-02-18T05:31:57.076Z,16.90
2018-02-18T05:34:24.526Z,17.07
2018-02-18T05:36:51.978Z,18.03
2018-02-18T05:39:20.213Z,18.20
2018-02-18T05:41:47.671Z,16.97
2018-02-18T05:44:15.152Z,17.80
2018-02-18T05:46:42.605Z,17.20
2018-02-18T05:49:10.931Z,18.13
2018-02-18T05:51:38.391Z,17.33
2018-02-18T05:54:05.880Z,14.90
2018-02-18T05:56:33.330Z,15.80
2018-02-18T05:59:00.800Z,16.53
2018-02-18T06:01:28.254Z,15.30
2018-02-18T06:03:55.728Z,15.07
2018-02-18T06:06:23.180Z,16.20
2018-02-18T06:08:50.652Z,15.67
2018-02-18T06:11:18.101Z,17.07
2018-02-18T06:13:45.581Z,17.17
2018-02-18T06:16:13.821Z,15.60
2018-02-18T06:18:41.300Z,15.90
2018-02-18T06:21:08.756Z,14.67
2018-02-18T06:23:36.233Z,14.33
2018-02-18T06:26:03.685Z,14.43
2018-02-18T06:28:31.166Z,15.03
2018-02-18T06:30:58.625Z,14.70
2018-02-18T06:33:26.105Z,14.73
2018-02-18T06:35:53.560Z,14.80
2018-02-18T06:38:21.025Z,13.93
2018-02-18T06:40:48.471Z,14.90
2018-02-18T06:43:16.720Z,14.97
2018-02-18T06:45:44.171Z,16.40
2018-02-18T06:48:11.647Z,14.60
2018-02-18T06:50:39.870Z,15.50
2018-02-18T06:53:07.336Z,15.77
2018-02-18T06:55:34.794Z,15.47
2018-02-18T06:58:02.285Z,13.70
2018-02-18T07:00:29.746Z,16.20
2018-02-18T07:02:57.223Z,15.93
2018-02-18T07:05:24.677Z,16.40
2018-02-18T07:07:52.915Z,17.37
2018-02-18T07:10:20.375Z,16.33
2018-02-18T07:12:48.620Z,15.70
2018-02-18T07:15:16.073Z,14.90
2018-02-18T07:17:43.548Z,14.10
2018-02-18T07:20:11.006Z,14.37
2018-02-18T07:22:38.491Z,13.53
2018-02-18T07:25:05.937Z,14.60
2018-02-18T07:27:33.425Z,14.53
2018-02-18T07:30:00.876Z,14.47
2018-02-18T07:32:28.351Z,13.23
2018-02-18T07:34:55.797Z,13.87
2018-02-18T07:37:24.104Z,13.10
2018-02-18T07:39:51.515Z,11.70
2018-02-18T07:42:18.994Z,11.10
2018-02-18T07:44:46.436Z,11.87
2018-02-18T07:47:13.909Z,10.80
2018-02-18T07:49:41.368Z,11.37
2018-02-18T07:52:08.850Z,12.40
2018-02-18T07:54:36.306Z,10.97
2018-02-18T07:57:03.781Z,12.90
2018-02-18T07:59:31.239Z,11.33
2018-02-18T08:01:58.713Z,11.33
2018-02-18T08:04:26.153Z,11.10
2018-02-18T08:06:53.625Z,12.27
2018-02-18T08:09:21.856Z,13.33
2018-02-18T08:11:49.329Z,12.87
2018-02-18T08:14:16.776Z,11.63
2018-02-18T08:16:45.021Z,12.30
2018-02-18T08:19:12.473Z,12.27
2018-02-18T08:21:39.968Z,12.27
2018-02-18T08:24:07.436Z,12.27
2018-02-18T08:26:36.412Z,11.93
2018-02-18T08:29:03.885Z,13.10
2018-02-18T08:31:31.359Z,10.63
2018-02-18T08:33:58.808Z,11.97
2018-02-18T08:36:26.281Z,12.23
2018-02-18T08:38:53.737Z,11.23
2018-02-18T08:41:21.983Z,12.23
2018-02-18T08:43:49.745Z,12.40
2018-02-18T08:46:17.220Z,12.37
2018-02-18T08:48:44.668Z,13.07
2018-02-18T08:51:12.145Z,12.53
2018-02-18T08:53:39.601Z,13.93
2018-02-18T08:56:07.138Z,13.37
2018-02-18T08:58:34.556Z,13.60
2018-02-18T09:01:02.033Z,13.80
2018-02-18T09:03:29.491Z,12.07
2018-02-18T09:05:56.966Z,12.13
2018-02-18T09:08:24.414Z,12.60
2018-02-18T09:10:51.893Z,12.57
2018-02-18T09:13:19.345Z,12.20
2018-02-18T09:15:46.819Z,12.30
2018-02-18T09:18:15.041Z,12.03
2018-02-18T09:20:42.509Z,13.30
2018-02-18T09:23:09.966Z,11.87
2018-02-18T09:25:37.445Z,12.90
2018-02-18T09:28:04.890Z,13.50
2018-02-18T09:30:33.130Z,13.30
2018-02-18T09:33:00.589Z,13.60
2018-02-18T09:35:28.069Z,13.17
2018-02-18T09:37:55.520Z,14.73
2018-02-18T09:40:22.996Z,13.83
2018-02-18T09:42:50.456Z,12.73
2018-02-18T09:45:17.930Z,11.83
2018-02-18T09:47:45.384Z,12.43
2018-02-18T09:50:13.631Z,12.40
2018-02-18T09:52:41.080Z,13.30
2018-02-18T09:55:08.596Z,11.80
2018-02-18T09:57:36.818Z,12.83
2018-02-18T10:00:04.306Z,13.33
2018-02-18T10:02:31.756Z,14.90
2018-02-18T10:04:59.232Z,13.53
2018-02-18T10:07:26.680Z,12.80
2018-02-18T10:09:54.928Z,12.80
2018-02-18T10:12:22.377Z,14.73
2018-02-18T10:14:50.630Z,13.80
2018-02-18T10:17:18.853Z,14.60
2018-02-18T10:19:46.320Z,14.73
2018-02-18T10:22:13.778Z,14.03
2018-02-18T10:24:41.258Z,13.83
2018-02-18T10:27:08.702Z,14.60
2018-02-18T10:29:36.940Z,13.03
2018-02-18T10:32:05.161Z,14.97
2018-02-18T10:34:33.405Z,15.97
2018-02-18T10:37:00.862Z,14.60
2018-02-18T10:39:28.338Z,14.93
2018-02-18T10:41:55.784Z,15.80
2018-02-18T10:44:23.265Z,17.90
2018-02-18T10:46:50.741Z,13.63
2018-02-18T10:49:18.201Z,13.90
2018-02-18T10:51:45.677Z,14.27
2018-02-18T10:54:13.151Z,14.97
2018-02-18T10:56:41.388Z,16.53
2018-02-18T10:59:08.857Z,13.47
2018-02-18T11:01:36.333Z,14.37
2018-02-18T11:04:03.789Z,12.10
2018-02-18T11:06:31.265Z,13.07
2018-02-18T11:08:58.716Z,14.00
2018-02-18T11:11:26.202Z,13.33
2018-02-18T11:13:53.647Z,13.60
2018-02-18T11:16:21.137Z,12.93
2018-02-18T11:18:48.581Z,14.70
2018-02-18T11:21:16.067Z,13.77
2018-02-18T11:23:43.521Z,12.90
2018-02-18T11:26:10.999Z,13.43
2018-02-18T11:28:38.458Z,13.80
2018-02-18T11:31:05.942Z,14.50
2018-02-18T11:33:33.413Z,13.70
2018-02-18T11:36:00.886Z,14.60
2018-02-18T11:38:28.366Z,12.50
2018-02-18T11:40:55.842Z,13.23
2018-02-18T11:43:23.305Z,13.73
2018-02-18T11:45:50.783Z,13.87
2018-02-18T11:48:18.224Z,13.30
2018-02-18T11:50:45.712Z,13.47
2018-02-18T11:53:13.164Z,13.67
2018-02-18T11:55:40.670Z,14.17
2018-02-18T11:58:08.169Z,14.13
2018-02-18T12:00:35.645Z,13.57
2018-02-18T12:03:03.097Z,13.90
2018-02-18T12:05:30.626Z,13.27
2018-02-18T12:07:58.086Z,13.30
2018-02-18T12:10:25.573Z,15.87
2018-02-18T12:12:53.021Z,17.20
2018-02-18T12:15:20.508Z,13.00
2018-02-18T12:17:47.958Z,14.47
2018-02-18T12:20:16.200Z,14.33
2018-02-18T12:22:43.665Z,14.30
2018-02-18T12:25:11.135Z,14.20
2018-02-18T12:27:38.589Z,15.33
2018-02-18T12:30:06.065Z,16.07
2018-02-18T12:32:33.516Z,14.03
2018-02-18T12:35:01.010Z,15.17
2018-02-18T12:37:28.462Z,15.57
2018-02-18T12:39:55.943Z,14.97
2018-02-18T12:42:23.395Z,13.20
2018-02-18T12:44:50.874Z,14.20
2018-02-18T12:47:18.358Z,11.63
2018-02-18T12:49:46.581Z,12.43
2018-02-18T12:52:14.042Z,13.20
2018-02-18T12:54:41.532Z,13.03
2018-02-18T12:57:08.973Z,13.93
2018-02-18T12:59:36.453Z,12.20
2018-02-18T13:02:03.902Z,11.83
2018-02-18T13:04:31.377Z,12.37
2018-02-18T13:06:58.841Z,13.03
2018-02-18T13:09:26.333Z,12.53
2018-02-18T13:11:53.785Z,13.57
2018-02-18T13:14:21.262Z,16.20
2018-02-18T13:16:48.711Z,15.30
2018-02-18T13:19:16.187Z,16.10
2018-02-18T13:21:43.648Z,15.90
2018-02-18T13:24:11.135Z,15.37
2018-02-18T13:26:38.612Z,15.00
2018-02-18T13:29:06.090Z,17.23
2018-02-18T13:31:33.541Z,17.53
2018-02-18T13:34:01.025Z,17.13
2018-02-18T13:36:28.473Z,16.40
2018-02-18T13:38:55.955Z,15.70
2018-02-18T13:41:23.406Z,15.53
2018-02-18T13:43:51.652Z,15.30
2018-02-18T13:46:19.106Z,15.60
2018-02-18T13:48:46.572Z,16.13
2018-02-18T13:51:14.034Z,15.90
2018-02-18T13:53:41.519Z,15.43
2018-02-18T13:56:09.505Z,15.57
2018-02-18T13:58:36.991Z,17.07
2018-02-18T14:01:04.445Z,15.77
2018-02-18T14:03:32.661Z,16.00
2018-02-18T14:06:00.141Z,15.07
2018-02-18T14:08:27.614Z,15.53
2018-02-18T14:10:55.828Z,15.00
2018-02-18T14:13:23.281Z,15.40
2018-02-18T14:15:51.525Z,15.87
2018-02-18T14:18:18.977Z,15.30
2018-02-18T14:20:46.466Z,16.63
2018-02-18T14:23:13.918Z,15.17
2018-02-18T14:25:41.409Z,15.60
2018-02-18T14:28:08.869Z,14.73
2018-02-18T14:30:38.009Z,14.57
2018-02-18T14:33:05.461Z,17.57
2018-02-18T14:35:32.946Z,17.60
2018-02-18T14:38:00.405Z,16.07
2018-02-18T14:40:27.883Z,15.67
2018-02-18T14:43:07.257Z,15.20
2018-02-18T14:45:47.448Z,15.37
2018-02-18T14:48:27.653Z,15.67
2018-02-18T14:51:07.127Z,16.90
2018-02-18T14:53:46.298Z,14.50
2018-02-18T14:56:25.733Z,16.10
2018-02-18T14:58:53.198Z,15.63
2018-02-18T15:01:20.680Z,16.83
2018-02-18T15:03:48.893Z,16.50
2018-02-18T15:06:16.380Z,17.83
2018-02-18T15:08:44.614Z,16.10
2018-02-18T15:11:12.348Z,17.20
2018-02-18T15:13:40.591Z,15.57
2018-02-18T15:16:08.073Z,16.00
2018-02-18T15:18:35.530Z,15.20
2018-02-18T15:21:04.009Z,15.77
2018-02-18T15:23:31.550Z,15.50
2018-02-18T15:25:58.993Z,15.93
2018-02-18T15:28:26.453Z,15.70
2018-02-18T15:30:53.951Z,16.77
2018-02-18T15:33:21.548Z,17.27
2018-02-18T15:35:49.034Z,16.93
2018-02-18T15:38:16.501Z,16.10
2018-02-18T15:40:43.985Z,17.30
2018-02-18T15:43:11.471Z,17.77
2018-02-18T15:45:38.966Z,17.63
2018-02-18T15:48:06.421Z,16.10
2018-02-18T15:50:33.929Z,16.77
2018-02-18T15:53:03.034Z,19.03
2018-02-18T15:55:30.510Z,18.83
2018-02-18T15:57:59.119Z,18.40
2018-02-18T16:00:28.007Z,19.00
2018-02-18T16:03:00.363Z,18.50
2018-02-18T16:14:57.124Z,15.60
2018-02-18T16:17:24.606Z,16.27
2018-02-18T16:19:52.821Z,19.27
2018-02-18T16:22:20.306Z,20.43
2018-02-18T16:24:48.538Z,20.43
2018-02-18T16:27:16.000Z,19.83
2018-02-18T16:29:43.454Z,21.17
2018-02-18T16:32:10.918Z,21.47
2018-02-18T16:34:38.382Z,21.13
2018-02-18T16:37:06.602Z,21.43
2018-02-18T16:39:34.098Z,21.73
2018-02-18T16:42:01.606Z,23.80
2018-02-18T16:44:29.830Z,24.00
2018-02-18T16:46:57.312Z,25.40
2018-02-18T16:49:24.757Z,24.10
2018-02-18T16:51:52.225Z,23.83
2018-02-18T16:54:19.717Z,25.00
2018-02-18T16:56:47.144Z,25.50
2018-02-18T16:59:15.411Z,24.20
2018-02-18T17:01:42.887Z,25.13
2018-02-18T17:04:10.339Z,26.37
2018-02-18T17:06:37.845Z,25.30
2018-02-18T17:09:06.065Z,25.90
2018-02-18T17:11:33.528Z,25.80
2018-02-18T17:14:00.986Z,26.87
2018-02-18T17:16:29.282Z,29.17
2018-02-18T17:18:57.513Z,27.60
2018-02-18T17:21:24.966Z,27.33
2018-02-18T17:23:52.445Z,28.13
2018-02-18T17:26:19.967Z,28.67
2018-02-18T17:28:47.449Z,30.00
2018-02-18T17:31:15.661Z,29.20
2018-02-18T17:33:43.122Z,27.77
2018-02-18T17:36:10.616Z,27.37
2018-02-18T17:38:38.806Z,27.67
2018-02-18T17:41:06.264Z,29.73
2018-02-18T17:43:33.906Z,30.80
2018-02-18T17:46:02.135Z,32.53
2018-02-18T17:48:29.716Z,29.50
2018-02-18T17:50:57.201Z,32.10
2018-02-18T17:53:24.656Z,29.50
2018-02-18T17:55:52.880Z,32.90
2018-02-18T17:58:20.354Z,29.60
2018-02-18T18:00:47.805Z,29.00
2018-02-18T18:03:15.269Z,29.40
2018-02-18T18:05:42.727Z,32.33
2018-02-18T18:08:10.185Z,29.40
2018-02-18T18:10:37.635Z,30.27
2018-02-18T18:13:05.855Z,32.00
2018-02-18T18:15:33.316Z,31.20
2018-02-18T18:18:00.798Z,32.83
2018-02-18T18:20:28.256Z,32.60
2018-02-18T18:22:55.720Z,32.70
2018-02-18T18:25:23.176Z,34.90
2018-02-18T18:27:51.388Z,31.93
2018-02-18T18:30:18.884Z,34.27
2018-02-18T18:32:46.338Z,33.13
2018-02-18T18:35:13.802Z,32.57
2018-02-18T18:37:41.323Z,34.77
2018-02-18T18:40:08.830Z,33.23
2018-02-18T18:42:36.284Z,34.27
2018-02-18T18:45:04.508Z,32.80
2018-02-18T18:47:31.953Z,31.57
2018-02-18T18:50:00.179Z,34.27
2018-02-18T18:52:27.695Z,34.40
2018-02-18T18:54:55.097Z,31.30
2018-02-18T18:57:22.565Z,36.03
2018-02-18T18:59:50.949Z,33.87
2018-02-18T19:02:18.424Z,36.37
2018-02-18T19:04:46.644Z,35.87
2018-02-18T19:07:14.098Z,35.70
2018-02-18T19:09:41.570Z,36.27
2018-02-18T19:12:09.016Z,37.93
2018-02-18T19:14:37.245Z,35.30
2018-02-18T19:17:04.712Z,35.20
2018-02-18T19:19:32.177Z,36.73
2018-02-18T19:21:59.756Z,36.67
2018-02-18T19:24:27.214Z,32.80
2018-02-18T19:26:54.673Z,37.17
2018-02-18T19:29:22.151Z,33.30
2018-02-18T19:31:50.997Z,33.33
2018-02-18T19:34:18.450Z,35.13
2018-02-18T19:36:45.901Z,35.07
2018-02-18T19:39:13.366Z,31.67
2018-02-18T19:41:41.740Z,32.13
2018-02-18T19:44:09.969Z,32.10
2018-02-18T19:46:37.512Z,33.50
2018-02-18T19:49:05.030Z,33.50
2018-02-18T19:51:33.270Z,32.80
2018-02-18T19:54:00.718Z,32.10
2018-02-18T19:56:28.997Z,30.20
2018-02-18T19:58:56.450Z,25.93
2018-02-18T20:01:23.913Z,20.00
2018-02-18T20:03:51.377Z,17.57
2018-02-18T20:06:19.221Z,16.37
2018-02-18T20:08:46.675Z,16.23
2018-02-18T20:11:14.926Z,15.60
2018-02-18T20:13:42.384Z,15.40
2018-02-18T20:16:09.846Z,14.30
2018-02-18T20:18:37.302Z,14.73
2018-02-18T20:21:04.761Z,14.23
2018-02-18T20:23:32.221Z,15.10
2018-02-18T20:26:00.444Z,15.57
2018-02-18T20:28:27.908Z,14.60
2018-02-18T20:30:55.458Z,14.60
2018-02-18T20:33:23.673Z,15.33
2018-02-18T20:35:51.133Z,15.27
2018-02-18T20:38:18.598Z,15.47
2018-02-18T20:40:46.061Z,18.57
2018-02-18T20:43:13.514Z,17.60
2018-02-18T20:45:41.746Z,16.70
2018-02-18T20:48:09.221Z,17.10
2018-02-18T20:50:36.685Z,14.83
2018-02-18T20:53:04.162Z,14.43
2018-02-18T20:55:31.618Z,17.00
2018-02-18T20:57:59.090Z,16.33
2018-02-18T21:00:26.554Z,17.43
2018-02-18T21:02:54.009Z,17.10
2018-02-18T21:05:22.262Z,16.53
2018-02-18T21:07:49.717Z,16.30
2018-02-18T21:10:17.181Z,16.17
2018-02-18T21:12:44.638Z,16.20
2018-02-18T21:15:12.085Z,19.77
2018-02-18T21:17:40.325Z,18.20
2018-02-18T21:20:07.792Z,15.00
2018-02-18T21:22:35.246Z,18.70
2018-02-18T21:25:02.701Z,19.80
2018-02-18T21:27:30.184Z,16.70
2018-02-18T21:29:57.646Z,19.50
2018-02-18T21:32:25.105Z,17.93
2018-02-18T21:34:52.561Z,18.50
2018-02-18T21:37:20.821Z,19.70
2018-02-18T21:39:48.273Z,17.70
2018-02-18T21:42:16.502Z,20.33
2018-02-18T21:44:44.735Z,18.30
2018-02-18T21:47:12.194Z,18.90
2018-02-18T21:49:39.641Z,18.40
2018-02-18T21:52:07.879Z,18.60
2018-02-18T21:54:35.351Z,19.30
2018-02-18T21:57:02.812Z,19.17
2018-02-18T21:59:30.273Z,17.87
2018-02-18T22:01:57.733Z,18.53
2018-02-18T22:04:25.182Z,18.87
2018-02-18T22:06:53.458Z,18.10
2018-02-18T22:09:20.861Z,19.20
2018-02-18T22:11:48.321Z,18.53
2018-02-18T22:14:15.780Z,18.77
2018-02-18T22:16:43.233Z,19.77
2018-02-18T22:19:10.697Z,20.63
2018-02-18T22:21:38.153Z,19.43
2018-02-18T22:24:05.609Z,21.50
2018-02-18T22:26:33.058Z,20.50
2018-02-18T22:29:00.612Z,19.10
2018-02-18T22:31:28.070Z,20.50
2018-02-18T22:33:56.299Z,20.17
2018-02-18T22:36:23.761Z,20.20
2018-02-18T22:38:51.220Z,20.10
2018-02-18T22:41:18.688Z,19.50
2018-02-18T22:43:46.153Z,18.53
2018-02-18T22:46:14.388Z,19.83
2018-02-18T22:48:41.850Z,18.43
2018-02-18T22:51:09.301Z,17.00
2018-02-18T22:53:36.762Z,18.03
2018-02-18T22:56:04.212Z,18.53
2018-02-18T22:58:31.676Z,19.10
2018-02-18T23:00:59.144Z,19.10
2018-02-18T23:03:26.610Z,17.13
2018-02-18T23:05:54.073Z,17.70
2018-02-18T23:08:21.540Z,17.50
2018-02-18T23:10:49.002Z,18.87
2018-02-18T23:13:16.460Z,17.97
2018-02-18T23:15:43.913Z,18.60
2018-02-18T23:18:11.369Z,16.10
2018-02-18T23:20:51.673Z,16.80
2018-02-18T23:23:19.166Z,15.63
2018-02-18T23:25:46.572Z,16.27
2018-02-18T23:28:14.800Z,16.60
2018-02-18T23:30:42.253Z,16.43
2018-02-18T23:33:09.724Z,17.40
2018-02-18T23:35:37.178Z,17.37
2018-02-18T23:38:05.407Z,17.20
2018-02-18T23:40:32.860Z,17.23
2018-02-18T23:43:00.334Z,16.00
2018-02-18T23:45:27.781Z,15.93
2018-02-18T23:47:55.237Z,16.77
2018-02-18T23:50:23.466Z,16.20
2018-02-18T23:52:50.917Z,17.30
2018-02-18T23:55:18.380Z,17.77
2018-02-18T23:57:45.837Z,15.20
